<?xml version='1.0' encoding='UTF-8'?><gpx version="1.1" creator="JPX - https://github.com/jenetics/jpx" xmlns="http://www.topografix.com/GPX/1/1"><trk><trkseg><trkpt lat="43.7579111" lon="11.1801233"><ele>44.0</ele><time>2026-04-09T10:34:50.01Z</time></trkpt><trkpt lat="43.7579742" lon="11.1801572"><ele>44.0</ele><time>2026-04-09T10:34:56.416Z</time></trkpt><trkpt lat="43.7579135" lon="11.1805173"><ele>44.0</ele><time>2026-04-09T10:35:05.434Z</time></trkpt><trkpt lat="43.757835" lon="11.1807081"><ele>44.142857142857146</ele><time>2026-04-09T10:35:06.412Z</time></trkpt><trkpt lat="43.7578508" lon="11.180801"><ele>44.285714285714285</ele><time>2026-04-09T10:35:09.47Z</time></trkpt><trkpt lat="43.7579221" lon="11.180855"><ele>44.42857142857143</ele><time>2026-04-09T10:35:13.374Z</time></trkpt><trkpt lat="43.7579413" lon="11.1809491"><ele>44.57142857142857</ele><time>2026-04-09T10:35:18.479Z</time></trkpt><trkpt lat="43.7579495" lon="11.1810527"><ele>44.714285714285715</ele><time>2026-04-09T10:35:22.91Z</time></trkpt><trkpt lat="43.7579516" lon="11.1811484"><ele>44.857142857142854</ele><time>2026-04-09T10:35:27.148Z</time></trkpt><trkpt lat="43.7579255" lon="11.1812303"><ele>45.0</ele><time>2026-04-09T10:35:32.393Z</time></trkpt><trkpt lat="43.7578994" lon="11.1813266"><ele>45.0</ele><time>2026-04-09T10:35:37.393Z</time></trkpt><trkpt lat="43.7578692" lon="11.181404"><ele>45.0</ele><time>2026-04-09T10:35:41.415Z</time></trkpt><trkpt lat="43.7578451" lon="11.1814881"><ele>45.0</ele><time>2026-04-09T10:35:45.39Z</time></trkpt><trkpt lat="43.7578179" lon="11.1815873"><ele>45.0</ele><time>2026-04-09T10:35:50.437Z</time></trkpt><trkpt lat="43.7578097" lon="11.1816806"><ele>45.0</ele><time>2026-04-09T10:35:54.459Z</time></trkpt><trkpt lat="43.7577855" lon="11.1817614"><ele>45.0</ele><time>2026-04-09T10:35:59.388Z</time></trkpt><trkpt lat="43.757732" lon="11.1818227"><ele>45.0</ele><time>2026-04-09T10:36:05.44Z</time></trkpt><trkpt lat="43.7576875" lon="11.1818949"><ele>45.14285714285714</ele><time>2026-04-09T10:36:11.418Z</time></trkpt><trkpt lat="43.7576402" lon="11.1819944"><ele>45.28571428571429</ele><time>2026-04-09T10:36:16.419Z</time></trkpt><trkpt lat="43.7576031" lon="11.1820726"><ele>45.42857142857143</ele><time>2026-04-09T10:36:21.419Z</time></trkpt><trkpt lat="43.7575681" lon="11.1821463"><ele>45.57142857142857</ele><time>2026-04-09T10:36:26.42Z</time></trkpt><trkpt lat="43.7575341" lon="11.1822272"><ele>45.71428571428571</ele><time>2026-04-09T10:36:30.393Z</time></trkpt><trkpt lat="43.7575496" lon="11.1823181"><ele>45.85714285714286</ele><time>2026-04-09T10:36:35.442Z</time></trkpt><trkpt lat="43.7575044" lon="11.1824047"><ele>46.0</ele><time>2026-04-09T10:36:44.374Z</time></trkpt><trkpt lat="43.7574503" lon="11.1824684"><ele>46.0</ele><time>2026-04-09T10:36:49.374Z</time></trkpt><trkpt lat="43.7573885" lon="11.1825073"><ele>46.0</ele><time>2026-04-09T10:36:53.379Z</time></trkpt><trkpt lat="43.7573256" lon="11.1825421"><ele>46.0</ele><time>2026-04-09T10:36:57.401Z</time></trkpt><trkpt lat="43.757258" lon="11.18252"><ele>46.0</ele><time>2026-04-09T10:37:01.424Z</time></trkpt><trkpt lat="43.7571981" lon="11.1825885"><ele>46.0</ele><time>2026-04-09T10:37:05.445Z</time></trkpt><trkpt lat="43.7571573" lon="11.1826587"><ele>46.0</ele><time>2026-04-09T10:37:10.446Z</time></trkpt><trkpt lat="43.7570934" lon="11.1826743"><ele>46.0</ele><time>2026-04-09T10:37:16.424Z</time></trkpt><trkpt lat="43.7570453" lon="11.1825996"><ele>46.0</ele><time>2026-04-09T10:37:23.49Z</time></trkpt><trkpt lat="43.7569751" lon="11.1825629"><ele>46.0</ele><time>2026-04-09T10:37:28.49Z</time></trkpt><trkpt lat="43.7569038" lon="11.1825578"><ele>46.0</ele><time>2026-04-09T10:37:32.306Z</time></trkpt><trkpt lat="43.7568405" lon="11.1825794"><ele>46.0</ele><time>2026-04-09T10:37:37.403Z</time></trkpt><trkpt lat="43.7567874" lon="11.1825067"><ele>46.0</ele><time>2026-04-09T10:37:44.468Z</time></trkpt><trkpt lat="43.7567207" lon="11.1824765"><ele>46.0</ele><time>2026-04-09T10:37:50.448Z</time></trkpt><trkpt lat="43.7566637" lon="11.1824224"><ele>46.0</ele><time>2026-04-09T10:37:57.345Z</time></trkpt><trkpt lat="43.7566074" lon="11.1823807"><ele>45.714285714285715</ele><time>2026-04-09T10:38:04.373Z</time></trkpt><trkpt lat="43.7565527" lon="11.1823337"><ele>45.42857142857142</ele><time>2026-04-09T10:38:10.286Z</time></trkpt><trkpt lat="43.7564955" lon="11.1822849"><ele>45.14285714285714</ele><time>2026-04-09T10:38:15.446Z</time></trkpt><trkpt lat="43.7564438" lon="11.1822333"><ele>44.85714285714286</ele><time>2026-04-09T10:38:19.469Z</time></trkpt><trkpt lat="43.7563833" lon="11.1821924"><ele>44.57142857142857</ele><time>2026-04-09T10:38:24.468Z</time></trkpt><trkpt lat="43.7563296" lon="11.1821387"><ele>44.285714285714285</ele><time>2026-04-09T10:38:30.388Z</time></trkpt><trkpt lat="43.7562659" lon="11.1820999"><ele>44.0</ele><time>2026-04-09T10:38:35.39Z</time></trkpt><trkpt lat="43.7561995" lon="11.1821409"><ele>44.0</ele><time>2026-04-09T10:38:45.446Z</time></trkpt><trkpt lat="43.7561502" lon="11.182212"><ele>44.0</ele><time>2026-04-09T10:38:55.507Z</time></trkpt><trkpt lat="43.7561344" lon="11.182323"><ele>44.0</ele><time>2026-04-09T10:38:59.491Z</time></trkpt><trkpt lat="43.7561115" lon="11.1824288"><ele>44.0</ele><time>2026-04-09T10:39:03.379Z</time></trkpt><trkpt lat="43.7560715" lon="11.1825134"><ele>44.0</ele><time>2026-04-09T10:39:07.401Z</time></trkpt><trkpt lat="43.7560235" lon="11.182593"><ele>44.0</ele><time>2026-04-09T10:39:12.401Z</time></trkpt><trkpt lat="43.7560064" lon="11.1826769"><ele>44.0</ele><time>2026-04-09T10:39:17.4Z</time></trkpt><trkpt lat="43.7560177" lon="11.1827761"><ele>44.285714285714285</ele><time>2026-04-09T10:39:23.487Z</time></trkpt><trkpt lat="43.7560486" lon="11.1828564"><ele>44.57142857142857</ele><time>2026-04-09T10:39:28.378Z</time></trkpt><trkpt lat="43.7560852" lon="11.1829295"><ele>44.85714285714286</ele><time>2026-04-09T10:39:33.513Z</time></trkpt><trkpt lat="43.7561426" lon="11.1829894"><ele>45.14285714285714</ele><time>2026-04-09T10:39:39.427Z</time></trkpt><trkpt lat="43.7561934" lon="11.1830443"><ele>45.42857142857142</ele><time>2026-04-09T10:39:44.387Z</time></trkpt><trkpt lat="43.756256" lon="11.1830926"><ele>45.714285714285715</ele><time>2026-04-09T10:39:49.327Z</time></trkpt><trkpt lat="43.7563212" lon="11.1831424"><ele>46.0</ele><time>2026-04-09T10:39:55.39Z</time></trkpt><trkpt lat="43.7563833" lon="11.1831837"><ele>46.285714285714285</ele><time>2026-04-09T10:40:00.368Z</time></trkpt><trkpt lat="43.7564439" lon="11.1832488"><ele>46.57142857142857</ele><time>2026-04-09T10:40:05.441Z</time></trkpt><trkpt lat="43.756508" lon="11.1832945"><ele>46.857142857142854</ele><time>2026-04-09T10:40:11.42Z</time></trkpt><trkpt lat="43.7565624" lon="11.1833454"><ele>47.14285714285714</ele><time>2026-04-09T10:40:16.446Z</time></trkpt><trkpt lat="43.7566189" lon="11.1834005"><ele>47.42857142857143</ele><time>2026-04-09T10:40:21.846Z</time></trkpt><trkpt lat="43.7566786" lon="11.1834629"><ele>47.71428571428571</ele><time>2026-04-09T10:40:28.376Z</time></trkpt><trkpt lat="43.7567398" lon="11.1835038"><ele>48.0</ele><time>2026-04-09T10:40:34.465Z</time></trkpt><trkpt lat="43.7567764" lon="11.1835943"><ele>47.99999999999999</ele><time>2026-04-09T10:40:43.377Z</time></trkpt><trkpt lat="43.7567778" lon="11.1836841"><ele>48.0</ele><time>2026-04-09T10:40:50.443Z</time></trkpt><trkpt lat="43.756771" lon="11.1837753"><ele>48.0</ele><time>2026-04-09T10:40:57.398Z</time></trkpt><trkpt lat="43.7567651" lon="11.1838937"><ele>48.0</ele><time>2026-04-09T10:41:03.447Z</time></trkpt><trkpt lat="43.7567806" lon="11.1839893"><ele>48.0</ele><time>2026-04-09T10:41:08.485Z</time></trkpt><trkpt lat="43.7567531" lon="11.18408"><ele>47.99999999999999</ele><time>2026-04-09T10:41:13.309Z</time></trkpt><trkpt lat="43.7566954" lon="11.1841555"><ele>48.0</ele><time>2026-04-09T10:41:17.397Z</time></trkpt><trkpt lat="43.7566471" lon="11.184223"><ele>47.99999999999999</ele><time>2026-04-09T10:41:21.447Z</time></trkpt><trkpt lat="43.7565843" lon="11.184245"><ele>48.0</ele><time>2026-04-09T10:41:25.44Z</time></trkpt><trkpt lat="43.7565254" lon="11.1842078"><ele>48.0</ele><time>2026-04-09T10:41:30.44Z</time></trkpt><trkpt lat="43.7564746" lon="11.184134"><ele>48.0</ele><time>2026-04-09T10:41:36.417Z</time></trkpt><trkpt lat="43.7564169" lon="11.1840902"><ele>48.0</ele><time>2026-04-09T10:41:40.439Z</time></trkpt><trkpt lat="43.7563586" lon="11.1840557"><ele>47.99999999999999</ele><time>2026-04-09T10:41:44.374Z</time></trkpt><trkpt lat="43.7562955" lon="11.18403"><ele>48.0</ele><time>2026-04-09T10:41:48.481Z</time></trkpt><trkpt lat="43.7562306" lon="11.1839833"><ele>47.99999999999999</ele><time>2026-04-09T10:41:52.394Z</time></trkpt><trkpt lat="43.7561678" lon="11.1839407"><ele>48.0</ele><time>2026-04-09T10:41:57.393Z</time></trkpt><trkpt lat="43.7560994" lon="11.1838975"><ele>48.0</ele><time>2026-04-09T10:42:02.393Z</time></trkpt><trkpt lat="43.7560265" lon="11.1838697"><ele>48.0</ele><time>2026-04-09T10:42:07.351Z</time></trkpt><trkpt lat="43.7559658" lon="11.1838392"><ele>48.0</ele><time>2026-04-09T10:42:12.392Z</time></trkpt><trkpt lat="43.7559166" lon="11.183784"><ele>47.99999999999999</ele><time>2026-04-09T10:42:16.414Z</time></trkpt><trkpt lat="43.7558567" lon="11.1837243"><ele>48.0</ele><time>2026-04-09T10:42:21.414Z</time></trkpt><trkpt lat="43.7557932" lon="11.1836767"><ele>47.857142857142854</ele><time>2026-04-09T10:42:27.392Z</time></trkpt><trkpt lat="43.755731" lon="11.1836298"><ele>47.714285714285715</ele><time>2026-04-09T10:42:32.393Z</time></trkpt><trkpt lat="43.7556673" lon="11.1835766"><ele>47.57142857142857</ele><time>2026-04-09T10:42:39.457Z</time></trkpt><trkpt lat="43.7556112" lon="11.1835334"><ele>47.42857142857143</ele><time>2026-04-09T10:42:45.409Z</time></trkpt><trkpt lat="43.7555471" lon="11.1834736"><ele>47.285714285714285</ele><time>2026-04-09T10:42:50.436Z</time></trkpt><trkpt lat="43.7554938" lon="11.1834226"><ele>47.14285714285714</ele><time>2026-04-09T10:42:55.436Z</time></trkpt><trkpt lat="43.7554298" lon="11.1833663"><ele>47.0</ele><time>2026-04-09T10:43:00.436Z</time></trkpt><trkpt lat="43.7553739" lon="11.1833174"><ele>47.0</ele><time>2026-04-09T10:43:05.436Z</time></trkpt><trkpt lat="43.755314" lon="11.1832759"><ele>47.0</ele><time>2026-04-09T10:43:10.009Z</time></trkpt><trkpt lat="43.7552498" lon="11.1832245"><ele>47.0</ele><time>2026-04-09T10:43:14.308Z</time></trkpt><trkpt lat="43.7551872" lon="11.1831835"><ele>47.0</ele><time>2026-04-09T10:43:19.37Z</time></trkpt><trkpt lat="43.7551278" lon="11.1831404"><ele>47.0</ele><time>2026-04-09T10:43:23.372Z</time></trkpt><trkpt lat="43.7550716" lon="11.1830798"><ele>47.0</ele><time>2026-04-09T10:43:27.502Z</time></trkpt><trkpt lat="43.7550089" lon="11.1830286"><ele>47.0</ele><time>2026-04-09T10:43:32.088Z</time></trkpt><trkpt lat="43.7549509" lon="11.18297"><ele>46.83333333333333</ele><time>2026-04-09T10:43:35.406Z</time></trkpt><trkpt lat="43.7548815" lon="11.1829141"><ele>46.666666666666664</ele><time>2026-04-09T10:43:40.438Z</time></trkpt><trkpt lat="43.754822" lon="11.1828571"><ele>46.5</ele><time>2026-04-09T10:43:47.395Z</time></trkpt><trkpt lat="43.7547614" lon="11.1828236"><ele>46.333333333333336</ele><time>2026-04-09T10:43:53.373Z</time></trkpt><trkpt lat="43.7546912" lon="11.1828582"><ele>46.16666666666667</ele><time>2026-04-09T10:44:01.417Z</time></trkpt><trkpt lat="43.7546193" lon="11.1829376"><ele>46.0</ele><time>2026-04-09T10:44:06.418Z</time></trkpt><trkpt lat="43.754562" lon="11.1830017"><ele>46.0</ele><time>2026-04-09T10:44:10.328Z</time></trkpt><trkpt lat="43.7545029" lon="11.1830789"><ele>46.0</ele><time>2026-04-09T10:44:14.449Z</time></trkpt><trkpt lat="43.7544573" lon="11.1831456"><ele>46.0</ele><time>2026-04-09T10:44:19.372Z</time></trkpt><trkpt lat="43.7544025" lon="11.1832171"><ele>46.0</ele><time>2026-04-09T10:44:25.372Z</time></trkpt><trkpt lat="43.7543435" lon="11.1832802"><ele>46.0</ele><time>2026-04-09T10:44:31.418Z</time></trkpt><trkpt lat="43.7542908" lon="11.1833294"><ele>46.0</ele><time>2026-04-09T10:44:35.44Z</time></trkpt><trkpt lat="43.7542374" lon="11.1834015"><ele>46.0</ele><time>2026-04-09T10:44:40.441Z</time></trkpt><trkpt lat="43.7541904" lon="11.1834596"><ele>46.142857142857146</ele><time>2026-04-09T10:44:44.372Z</time></trkpt><trkpt lat="43.7541448" lon="11.1835201"><ele>46.285714285714285</ele><time>2026-04-09T10:44:48.376Z</time></trkpt><trkpt lat="43.7541053" lon="11.1835948"><ele>46.42857142857143</ele><time>2026-04-09T10:44:53.375Z</time></trkpt><trkpt lat="43.7540631" lon="11.1836747"><ele>46.57142857142857</ele><time>2026-04-09T10:44:58.376Z</time></trkpt><trkpt lat="43.7540315" lon="11.1837508"><ele>46.71428571428571</ele><time>2026-04-09T10:45:03.376Z</time></trkpt><trkpt lat="43.7539883" lon="11.1838294"><ele>46.857142857142854</ele><time>2026-04-09T10:45:08.377Z</time></trkpt><trkpt lat="43.7539451" lon="11.1839056"><ele>47.0</ele><time>2026-04-09T10:45:12.411Z</time></trkpt><trkpt lat="43.7539066" lon="11.1839749"><ele>47.14285714285714</ele><time>2026-04-09T10:45:18.377Z</time></trkpt><trkpt lat="43.753858" lon="11.1840393"><ele>47.285714285714285</ele><time>2026-04-09T10:45:27.399Z</time></trkpt><trkpt lat="43.7538323" lon="11.1841331"><ele>47.42857142857143</ele><time>2026-04-09T10:45:32.399Z</time></trkpt><trkpt lat="43.7538008" lon="11.1842189"><ele>47.57142857142857</ele><time>2026-04-09T10:45:36.421Z</time></trkpt><trkpt lat="43.7537743" lon="11.1843085"><ele>47.714285714285715</ele><time>2026-04-09T10:45:41.422Z</time></trkpt><trkpt lat="43.7537457" lon="11.1843984"><ele>47.857142857142854</ele><time>2026-04-09T10:45:46.41Z</time></trkpt><trkpt lat="43.7536785" lon="11.184446"><ele>48.0</ele><time>2026-04-09T10:45:51.422Z</time></trkpt><trkpt lat="43.7536237" lon="11.1844968"><ele>47.99999999999999</ele><time>2026-04-09T10:45:56.422Z</time></trkpt><trkpt lat="43.7536402" lon="11.1845837"><ele>48.0</ele><time>2026-04-09T10:46:01.423Z</time></trkpt><trkpt lat="43.7537028" lon="11.1845715"><ele>48.0</ele><time>2026-04-09T10:46:08.446Z</time></trkpt><trkpt lat="43.7537753" lon="11.1845983"><ele>48.0</ele><time>2026-04-09T10:46:14.372Z</time></trkpt><trkpt lat="43.7538484" lon="11.1846012"><ele>48.0</ele><time>2026-04-09T10:46:18.379Z</time></trkpt><trkpt lat="43.7539158" lon="11.1846238"><ele>47.99999999999999</ele><time>2026-04-09T10:46:23.38Z</time></trkpt><trkpt lat="43.7539774" lon="11.1846667"><ele>48.0</ele><time>2026-04-09T10:46:29.467Z</time></trkpt><trkpt lat="43.7540249" lon="11.184724"><ele>47.99999999999999</ele><time>2026-04-09T10:46:34.373Z</time></trkpt><trkpt lat="43.7540892" lon="11.1847744"><ele>48.0</ele><time>2026-04-09T10:46:39.307Z</time></trkpt><trkpt lat="43.7541523" lon="11.1848216"><ele>48.0</ele><time>2026-04-09T10:46:47.403Z</time></trkpt><trkpt lat="43.7542094" lon="11.184865"><ele>48.0</ele><time>2026-04-09T10:46:52.188Z</time></trkpt><trkpt lat="43.7542679" lon="11.1849181"><ele>48.0</ele><time>2026-04-09T10:46:57.227Z</time></trkpt><trkpt lat="43.7543169" lon="11.184977"><ele>47.99999999999999</ele><time>2026-04-09T10:47:01.389Z</time></trkpt><trkpt lat="43.7543807" lon="11.1850314"><ele>48.0</ele><time>2026-04-09T10:47:05.447Z</time></trkpt><trkpt lat="43.7544409" lon="11.185081"><ele>47.857142857142854</ele><time>2026-04-09T10:47:09.369Z</time></trkpt><trkpt lat="43.7544948" lon="11.1851395"><ele>47.714285714285715</ele><time>2026-04-09T10:47:14.389Z</time></trkpt><trkpt lat="43.7545515" lon="11.185187"><ele>47.57142857142857</ele><time>2026-04-09T10:47:19.372Z</time></trkpt><trkpt lat="43.7546054" lon="11.1852541"><ele>47.42857142857143</ele><time>2026-04-09T10:47:23.383Z</time></trkpt><trkpt lat="43.7546577" lon="11.1853133"><ele>47.285714285714285</ele><time>2026-04-09T10:47:27.427Z</time></trkpt><trkpt lat="43.7547114" lon="11.185372"><ele>47.14285714285714</ele><time>2026-04-09T10:47:31.428Z</time></trkpt><trkpt lat="43.7547637" lon="11.1854339"><ele>47.0</ele><time>2026-04-09T10:47:35.447Z</time></trkpt><trkpt lat="43.7548222" lon="11.1854872"><ele>47.0</ele><time>2026-04-09T10:47:39.472Z</time></trkpt><trkpt lat="43.7548833" lon="11.1855384"><ele>47.0</ele><time>2026-04-09T10:47:44.372Z</time></trkpt><trkpt lat="43.7549421" lon="11.1855711"><ele>47.0</ele><time>2026-04-09T10:47:49.371Z</time></trkpt><trkpt lat="43.7549949" lon="11.1856195"><ele>47.0</ele><time>2026-04-09T10:47:53.386Z</time></trkpt><trkpt lat="43.7550542" lon="11.1856737"><ele>47.0</ele><time>2026-04-09T10:48:00.371Z</time></trkpt><trkpt lat="43.7551122" lon="11.1857299"><ele>47.0</ele><time>2026-04-09T10:48:05.452Z</time></trkpt><trkpt lat="43.7551748" lon="11.1857839"><ele>47.0</ele><time>2026-04-09T10:48:11.431Z</time></trkpt><trkpt lat="43.7552377" lon="11.1858127"><ele>47.0</ele><time>2026-04-09T10:48:16.432Z</time></trkpt><trkpt lat="43.7552848" lon="11.1858782"><ele>47.0</ele><time>2026-04-09T10:48:23.388Z</time></trkpt><trkpt lat="43.7553373" lon="11.1859334"><ele>47.0</ele><time>2026-04-09T10:48:28.98Z</time></trkpt><trkpt lat="43.7553913" lon="11.185979"><ele>47.0</ele><time>2026-04-09T10:48:36.434Z</time></trkpt><trkpt lat="43.7554441" lon="11.1860389"><ele>47.0</ele><time>2026-04-09T10:48:44.371Z</time></trkpt><trkpt lat="43.7555041" lon="11.1860876"><ele>47.0</ele><time>2026-04-09T10:48:49.472Z</time></trkpt><trkpt lat="43.755561" lon="11.1861352"><ele>47.0</ele><time>2026-04-09T10:48:54.089Z</time></trkpt><trkpt lat="43.7555319" lon="11.186216"><ele>47.0</ele><time>2026-04-09T10:49:01.43Z</time></trkpt><trkpt lat="43.7555142" lon="11.1863012"><ele>47.0</ele><time>2026-04-09T10:49:18.388Z</time></trkpt><trkpt lat="43.7554997" lon="11.1863995"><ele>47.0</ele><time>2026-04-09T10:49:22.41Z</time></trkpt><trkpt lat="43.7554846" lon="11.186495"><ele>47.0</ele><time>2026-04-09T10:49:27.37Z</time></trkpt><trkpt lat="43.7554484" lon="11.1865748"><ele>47.0</ele><time>2026-04-09T10:49:32.411Z</time></trkpt><trkpt lat="43.7554051" lon="11.186657"><ele>47.0</ele><time>2026-04-09T10:49:38.39Z</time></trkpt><trkpt lat="43.7553669" lon="11.1867268"><ele>47.0</ele><time>2026-04-09T10:49:42.412Z</time></trkpt><trkpt lat="43.7553291" lon="11.1868106"><ele>47.0</ele><time>2026-04-09T10:49:46.446Z</time></trkpt><trkpt lat="43.7552882" lon="11.1868891"><ele>47.0</ele><time>2026-04-09T10:49:51.434Z</time></trkpt><trkpt lat="43.7552318" lon="11.1869591"><ele>47.0</ele><time>2026-04-09T10:49:55.456Z</time></trkpt><trkpt lat="43.7551869" lon="11.187044"><ele>47.0</ele><time>2026-04-09T10:49:59.371Z</time></trkpt><trkpt lat="43.755158" lon="11.1871316"><ele>47.0</ele><time>2026-04-09T10:50:05.286Z</time></trkpt><trkpt lat="43.7551318" lon="11.1872145"><ele>47.0</ele><time>2026-04-09T10:50:11.436Z</time></trkpt><trkpt lat="43.7550975" lon="11.1872982"><ele>47.0</ele><time>2026-04-09T10:50:19.372Z</time></trkpt><trkpt lat="43.7550582" lon="11.1873674"><ele>46.857142857142854</ele><time>2026-04-09T10:50:24.371Z</time></trkpt><trkpt lat="43.7550257" lon="11.1874423"><ele>46.71428571428571</ele><time>2026-04-09T10:50:29.369Z</time></trkpt><trkpt lat="43.7549775" lon="11.1875192"><ele>46.57142857142857</ele><time>2026-04-09T10:50:35.371Z</time></trkpt><trkpt lat="43.7549298" lon="11.1875837"><ele>46.42857142857143</ele><time>2026-04-09T10:50:40.371Z</time></trkpt><trkpt lat="43.7548867" lon="11.1876583"><ele>46.285714285714285</ele><time>2026-04-09T10:50:47.449Z</time></trkpt><trkpt lat="43.7548547" lon="11.1877511"><ele>46.142857142857146</ele><time>2026-04-09T10:50:53.395Z</time></trkpt><trkpt lat="43.7548116" lon="11.1878262"><ele>46.0</ele><time>2026-04-09T10:50:57.417Z</time></trkpt><trkpt lat="43.7547566" lon="11.1878994"><ele>46.0</ele><time>2026-04-09T10:51:02.417Z</time></trkpt><trkpt lat="43.754712" lon="11.1879644"><ele>46.0</ele><time>2026-04-09T10:51:07.417Z</time></trkpt><trkpt lat="43.7546836" lon="11.1880519"><ele>46.0</ele><time>2026-04-09T10:51:12.47Z</time></trkpt><trkpt lat="43.7546569" lon="11.1881333"><ele>46.0</ele><time>2026-04-09T10:51:17.418Z</time></trkpt><trkpt lat="43.7546159" lon="11.1882048"><ele>46.0</ele><time>2026-04-09T10:51:21.352Z</time></trkpt><trkpt lat="43.7545803" lon="11.1882814"><ele>46.0</ele><time>2026-04-09T10:51:25.371Z</time></trkpt><trkpt lat="43.7545393" lon="11.1883545"><ele>46.0</ele><time>2026-04-09T10:51:29.375Z</time></trkpt><trkpt lat="43.754488" lon="11.1884052"><ele>46.0</ele><time>2026-04-09T10:51:33.397Z</time></trkpt><trkpt lat="43.7544212" lon="11.1884585"><ele>46.0</ele><time>2026-04-09T10:51:37.419Z</time></trkpt><trkpt lat="43.7543842" lon="11.1885368"><ele>46.0</ele><time>2026-04-09T10:51:42.419Z</time></trkpt><trkpt lat="43.7543442" lon="11.1886254"><ele>46.0</ele><time>2026-04-09T10:51:48.398Z</time></trkpt><trkpt lat="43.7542932" lon="11.1886935"><ele>46.0</ele><time>2026-04-09T10:51:53.399Z</time></trkpt><trkpt lat="43.7542424" lon="11.1887594"><ele>46.0</ele><time>2026-04-09T10:51:59.376Z</time></trkpt><trkpt lat="43.7541973" lon="11.1888231"><ele>46.0</ele><time>2026-04-09T10:52:06.442Z</time></trkpt><trkpt lat="43.7541415" lon="11.1888815"><ele>46.0</ele><time>2026-04-09T10:52:14.377Z</time></trkpt><trkpt lat="43.7540869" lon="11.188939"><ele>46.0</ele><time>2026-04-09T10:52:21.307Z</time></trkpt><trkpt lat="43.7540378" lon="11.1890173"><ele>46.0</ele><time>2026-04-09T10:52:27.421Z</time></trkpt><trkpt lat="43.7539854" lon="11.1890788"><ele>46.0</ele><time>2026-04-09T10:52:30.371Z</time></trkpt><trkpt lat="43.7539324" lon="11.1891582"><ele>46.0</ele><time>2026-04-09T10:52:34.378Z</time></trkpt><trkpt lat="43.7538804" lon="11.1892267"><ele>46.0</ele><time>2026-04-09T10:52:38.4Z</time></trkpt><trkpt lat="43.7538316" lon="11.1892884"><ele>46.0</ele><time>2026-04-09T10:52:46.439Z</time></trkpt><trkpt lat="43.7537989" lon="11.1893664"><ele>46.142857142857146</ele><time>2026-04-09T10:52:52.418Z</time></trkpt><trkpt lat="43.7537669" lon="11.1894447"><ele>46.285714285714285</ele><time>2026-04-09T10:52:58.397Z</time></trkpt><trkpt lat="43.7537384" lon="11.1895279"><ele>46.42857142857143</ele><time>2026-04-09T10:53:03.39Z</time></trkpt><trkpt lat="43.7537134" lon="11.1896116"><ele>46.57142857142857</ele><time>2026-04-09T10:53:10.286Z</time></trkpt><trkpt lat="43.7536799" lon="11.1897073"><ele>46.71428571428571</ele><time>2026-04-09T10:53:15.948Z</time></trkpt><trkpt lat="43.7536322" lon="11.1897959"><ele>46.857142857142854</ele><time>2026-04-09T10:53:20.385Z</time></trkpt><trkpt lat="43.7535792" lon="11.1898608"><ele>47.0</ele><time>2026-04-09T10:53:25.463Z</time></trkpt><trkpt lat="43.753592" lon="11.1899564"><ele>47.0</ele><time>2026-04-09T10:53:29.309Z</time></trkpt><trkpt lat="43.7536123" lon="11.1900581"><ele>47.0</ele><time>2026-04-09T10:53:33.398Z</time></trkpt><trkpt lat="43.7536544" lon="11.1901455"><ele>47.0</ele><time>2026-04-09T10:53:38.398Z</time></trkpt><trkpt lat="43.7536951" lon="11.1902239"><ele>47.0</ele><time>2026-04-09T10:53:42.42Z</time></trkpt><trkpt lat="43.7537417" lon="11.1902893"><ele>47.0</ele><time>2026-04-09T10:53:47.42Z</time></trkpt><trkpt lat="43.753794" lon="11.1903546"><ele>47.0</ele><time>2026-04-09T10:53:52.42Z</time></trkpt><trkpt lat="43.7538038" lon="11.190456"><ele>47.0</ele><time>2026-04-09T10:53:58.398Z</time></trkpt><trkpt lat="43.7537917" lon="11.190553"><ele>47.0</ele><time>2026-04-09T10:54:07.419Z</time></trkpt><trkpt lat="43.7538233" lon="11.1906303"><ele>47.0</ele><time>2026-04-09T10:54:14.484Z</time></trkpt><trkpt lat="43.7538628" lon="11.1906995"><ele>47.0</ele><time>2026-04-09T10:54:19.484Z</time></trkpt><trkpt lat="43.7538818" lon="11.190789"><ele>47.0</ele><time>2026-04-09T10:54:24.589Z</time></trkpt><trkpt lat="43.7539139" lon="11.1908757"><ele>47.0</ele><time>2026-04-09T10:54:30.285Z</time></trkpt><trkpt lat="43.753953" lon="11.1909592"><ele>47.0</ele><time>2026-04-09T10:54:37.418Z</time></trkpt><trkpt lat="43.7540098" lon="11.1909196"><ele>47.0</ele><time>2026-04-09T10:54:43.396Z</time></trkpt><trkpt lat="43.7540691" lon="11.1908821"><ele>47.0</ele><time>2026-04-09T10:54:51.33Z</time></trkpt><trkpt lat="43.7541288" lon="11.1908379"><ele>47.0</ele><time>2026-04-09T10:54:55.46Z</time></trkpt><trkpt lat="43.7541771" lon="11.1907713"><ele>47.0</ele><time>2026-04-09T10:55:01.428Z</time></trkpt><trkpt lat="43.7542301" lon="11.1907055"><ele>47.0</ele><time>2026-04-09T10:55:11.426Z</time></trkpt><trkpt lat="43.7542852" lon="11.19064"><ele>47.0</ele><time>2026-04-09T10:55:17.417Z</time></trkpt><trkpt lat="43.7543336" lon="11.1905783"><ele>47.0</ele><time>2026-04-09T10:55:22.417Z</time></trkpt><trkpt lat="43.7543865" lon="11.1905222"><ele>47.0</ele><time>2026-04-09T10:55:26.439Z</time></trkpt><trkpt lat="43.7544397" lon="11.1904533"><ele>46.857142857142854</ele><time>2026-04-09T10:55:31.439Z</time></trkpt><trkpt lat="43.7545057" lon="11.1904331"><ele>46.71428571428571</ele><time>2026-04-09T10:55:37.418Z</time></trkpt><trkpt lat="43.7545624" lon="11.1903797"><ele>46.57142857142857</ele><time>2026-04-09T10:55:43.396Z</time></trkpt><trkpt lat="43.7546449" lon="11.1904029"><ele>46.42857142857143</ele><time>2026-04-09T10:55:49.375Z</time></trkpt><trkpt lat="43.7547123" lon="11.1904123"><ele>46.285714285714285</ele><time>2026-04-09T10:55:53.396Z</time></trkpt><trkpt lat="43.7547703" lon="11.1904809"><ele>46.142857142857146</ele><time>2026-04-09T10:55:57.407Z</time></trkpt><trkpt lat="43.754822" lon="11.1905635"><ele>46.0</ele><time>2026-04-09T10:56:01.44Z</time></trkpt><trkpt lat="43.7548662" lon="11.1906474"><ele>46.0</ele><time>2026-04-09T10:56:06.441Z</time></trkpt><trkpt lat="43.7549048" lon="11.190726"><ele>46.0</ele><time>2026-04-09T10:56:11.441Z</time></trkpt><trkpt lat="43.7549471" lon="11.190797"><ele>46.0</ele><time>2026-04-09T10:56:16.441Z</time></trkpt><trkpt lat="43.7549973" lon="11.1908673"><ele>46.0</ele><time>2026-04-09T10:56:21.333Z</time></trkpt><trkpt lat="43.7550387" lon="11.1909342"><ele>46.0</ele><time>2026-04-09T10:56:25.37Z</time></trkpt><trkpt lat="43.7550823" lon="11.1910026"><ele>46.0</ele><time>2026-04-09T10:56:30.288Z</time></trkpt><trkpt lat="43.7551356" lon="11.1910845"><ele>46.0</ele><time>2026-04-09T10:56:35.371Z</time></trkpt><trkpt lat="43.755186" lon="11.1911659"><ele>46.0</ele><time>2026-04-09T10:56:41.442Z</time></trkpt><trkpt lat="43.7552343" lon="11.1912285"><ele>46.0</ele><time>2026-04-09T10:56:46.443Z</time></trkpt><trkpt lat="43.7552992" lon="11.1912304"><ele>46.0</ele><time>2026-04-09T10:56:53.417Z</time></trkpt><trkpt lat="43.7553506" lon="11.1911756"><ele>46.0</ele><time>2026-04-09T10:57:00.37Z</time></trkpt><trkpt lat="43.75541" lon="11.1911052"><ele>46.0</ele><time>2026-04-09T10:57:04.406Z</time></trkpt><trkpt lat="43.7554588" lon="11.1910485"><ele>46.0</ele><time>2026-04-09T10:57:07.423Z</time></trkpt><trkpt lat="43.7555109" lon="11.1909819"><ele>46.0</ele><time>2026-04-09T10:57:11.445Z</time></trkpt><trkpt lat="43.7555597" lon="11.1909204"><ele>46.0</ele><time>2026-04-09T10:57:15.37Z</time></trkpt><trkpt lat="43.7556067" lon="11.1908533"><ele>46.0</ele><time>2026-04-09T10:57:20.371Z</time></trkpt><trkpt lat="43.7556553" lon="11.1907873"><ele>46.0</ele><time>2026-04-09T10:57:25.37Z</time></trkpt><trkpt lat="43.7557061" lon="11.1907214"><ele>46.0</ele><time>2026-04-09T10:57:30.37Z</time></trkpt><trkpt lat="43.7557588" lon="11.1906692"><ele>46.0</ele><time>2026-04-09T10:57:35.37Z</time></trkpt><trkpt lat="43.7558161" lon="11.1905982"><ele>46.0</ele><time>2026-04-09T10:57:40.37Z</time></trkpt><trkpt lat="43.7558758" lon="11.1905312"><ele>46.0</ele><time>2026-04-09T10:57:45.37Z</time></trkpt><trkpt lat="43.7559261" lon="11.1904633"><ele>46.142857142857146</ele><time>2026-04-09T10:57:50.428Z</time></trkpt><trkpt lat="43.7559731" lon="11.1903933"><ele>46.285714285714285</ele><time>2026-04-09T10:57:56.347Z</time></trkpt><trkpt lat="43.7560182" lon="11.1903204"><ele>46.42857142857143</ele><time>2026-04-09T10:58:04.328Z</time></trkpt><trkpt lat="43.7560773" lon="11.1902637"><ele>46.57142857142857</ele><time>2026-04-09T10:58:11.45Z</time></trkpt><trkpt lat="43.7561272" lon="11.1901911"><ele>46.71428571428571</ele><time>2026-04-09T10:58:17.429Z</time></trkpt><trkpt lat="43.7561749" lon="11.1901194"><ele>46.857142857142854</ele><time>2026-04-09T10:58:23.408Z</time></trkpt><trkpt lat="43.7562243" lon="11.1900457"><ele>47.0</ele><time>2026-04-09T10:58:28.408Z</time></trkpt><trkpt lat="43.756279" lon="11.1899784"><ele>47.0</ele><time>2026-04-09T10:58:34.391Z</time></trkpt><trkpt lat="43.7563278" lon="11.1899099"><ele>47.0</ele><time>2026-04-09T10:58:40.369Z</time></trkpt><trkpt lat="43.7563822" lon="11.189831"><ele>47.0</ele><time>2026-04-09T10:58:45.369Z</time></trkpt><trkpt lat="43.7563794" lon="11.1897409"><ele>47.0</ele><time>2026-04-09T10:58:49.388Z</time></trkpt><trkpt lat="43.7563542" lon="11.1896419"><ele>47.0</ele><time>2026-04-09T10:58:55.37Z</time></trkpt><trkpt lat="43.7563085" lon="11.1895701"><ele>47.0</ele><time>2026-04-09T10:59:00.469Z</time></trkpt><trkpt lat="43.7562627" lon="11.1894969"><ele>47.0</ele><time>2026-04-09T10:59:05.37Z</time></trkpt><trkpt lat="43.7562173" lon="11.1894201"><ele>47.0</ele><time>2026-04-09T10:59:10.471Z</time></trkpt><trkpt lat="43.7562266" lon="11.1893285"><ele>47.0</ele><time>2026-04-09T10:59:17.435Z</time></trkpt><trkpt lat="43.7562507" lon="11.1892397"><ele>47.0</ele><time>2026-04-09T10:59:23.413Z</time></trkpt><trkpt lat="43.7562915" lon="11.189171"><ele>47.0</ele><time>2026-04-09T10:59:28.415Z</time></trkpt><trkpt lat="43.7563376" lon="11.1890974"><ele>47.0</ele><time>2026-04-09T10:59:33.415Z</time></trkpt><trkpt lat="43.7563831" lon="11.1890364"><ele>47.0</ele><time>2026-04-09T10:59:38.415Z</time></trkpt><trkpt lat="43.7564299" lon="11.1889592"><ele>47.0</ele><time>2026-04-09T10:59:44.01Z</time></trkpt><trkpt lat="43.7564753" lon="11.1888766"><ele>47.285714285714285</ele><time>2026-04-09T10:59:48.427Z</time></trkpt><trkpt lat="43.7565302" lon="11.1888277"><ele>47.57142857142857</ele><time>2026-04-09T10:59:52.437Z</time></trkpt><trkpt lat="43.7565897" lon="11.1887746"><ele>47.85714285714286</ele><time>2026-04-09T10:59:58.416Z</time></trkpt><trkpt lat="43.7566145" lon="11.1886841"><ele>48.14285714285714</ele><time>2026-04-09T11:00:05.423Z</time></trkpt><trkpt lat="43.7566273" lon="11.188597"><ele>48.42857142857143</ele><time>2026-04-09T11:00:11.809Z</time></trkpt><trkpt lat="43.7566693" lon="11.1885227"><ele>48.714285714285715</ele><time>2026-04-09T11:00:17.44Z</time></trkpt><trkpt lat="43.7567168" lon="11.1884502"><ele>49.0</ele><time>2026-04-09T11:00:22.468Z</time></trkpt><trkpt lat="43.7567662" lon="11.188392"><ele>49.0</ele><time>2026-04-09T11:00:26.462Z</time></trkpt><trkpt lat="43.7568153" lon="11.1883178"><ele>49.0</ele><time>2026-04-09T11:00:31.463Z</time></trkpt><trkpt lat="43.7568495" lon="11.1882431"><ele>49.0</ele><time>2026-04-09T11:00:36.369Z</time></trkpt><trkpt lat="43.7568865" lon="11.1881674"><ele>49.0</ele><time>2026-04-09T11:00:41.369Z</time></trkpt><trkpt lat="43.7569331" lon="11.1880801"><ele>49.0</ele><time>2026-04-09T11:00:46.466Z</time></trkpt><trkpt lat="43.7569747" lon="11.1879928"><ele>49.0</ele><time>2026-04-09T11:00:52.443Z</time></trkpt><trkpt lat="43.7569418" lon="11.1879131"><ele>49.0</ele><time>2026-04-09T11:01:00.307Z</time></trkpt><trkpt lat="43.7569564" lon="11.1878181"><ele>48.42857142857143</ele><time>2026-04-09T11:01:09.401Z</time></trkpt><trkpt lat="43.7569734" lon="11.1877259"><ele>47.85714285714286</ele><time>2026-04-09T11:01:15.38Z</time></trkpt><trkpt lat="43.7569451" lon="11.1876459"><ele>47.285714285714285</ele><time>2026-04-09T11:01:25.381Z</time></trkpt><trkpt lat="43.756897" lon="11.1877105"><ele>46.714285714285715</ele><time>2026-04-09T11:01:41.471Z</time></trkpt><trkpt lat="43.7569337" lon="11.1876167"><ele>46.142857142857146</ele><time>2026-04-09T11:01:46.285Z</time></trkpt><trkpt lat="43.7569648" lon="11.1875369"><ele>45.57142857142857</ele><time>2026-04-09T11:01:50.385Z</time></trkpt><trkpt lat="43.7570016" lon="11.1874522"><ele>45.0</ele><time>2026-04-09T11:01:54.371Z</time></trkpt><trkpt lat="43.7570363" lon="11.1873609"><ele>44.714285714285715</ele><time>2026-04-09T11:01:59.408Z</time></trkpt><trkpt lat="43.7570694" lon="11.1872632"><ele>44.42857142857143</ele><time>2026-04-09T11:02:04.402Z</time></trkpt><trkpt lat="43.7570958" lon="11.1871746"><ele>44.142857142857146</ele><time>2026-04-09T11:02:08.424Z</time></trkpt><trkpt lat="43.757119" lon="11.1870868"><ele>43.85714285714286</ele><time>2026-04-09T11:02:12.469Z</time></trkpt><trkpt lat="43.7571479" lon="11.1869936"><ele>43.57142857142857</ele><time>2026-04-09T11:02:17.508Z</time></trkpt><trkpt lat="43.7571725" lon="11.1869128"><ele>43.28571428571429</ele><time>2026-04-09T11:02:22.446Z</time></trkpt><trkpt lat="43.757201" lon="11.1868171"><ele>43.0</ele><time>2026-04-09T11:02:28.424Z</time></trkpt><trkpt lat="43.7572358" lon="11.1867342"><ele>43.00000000000001</ele><time>2026-04-09T11:02:34.403Z</time></trkpt><trkpt lat="43.7572861" lon="11.1866799"><ele>43.0</ele><time>2026-04-09T11:02:39.403Z</time></trkpt><trkpt lat="43.757293" lon="11.1865875"><ele>43.0</ele><time>2026-04-09T11:02:46.468Z</time></trkpt><trkpt lat="43.7573202" lon="11.1865077"><ele>43.0</ele><time>2026-04-09T11:02:51.307Z</time></trkpt><trkpt lat="43.7573529" lon="11.1864119"><ele>43.0</ele><time>2026-04-09T11:02:57.489Z</time></trkpt><trkpt lat="43.7573705" lon="11.1863175"><ele>43.00000000000001</ele><time>2026-04-09T11:03:03.425Z</time></trkpt><trkpt lat="43.7573968" lon="11.1862227"><ele>43.0</ele><time>2026-04-09T11:03:09.403Z</time></trkpt><trkpt lat="43.7574288" lon="11.18613"><ele>43.142857142857146</ele><time>2026-04-09T11:03:15.382Z</time></trkpt><trkpt lat="43.7574683" lon="11.1860488"><ele>43.285714285714285</ele><time>2026-04-09T11:03:21.349Z</time></trkpt><trkpt lat="43.7574976" lon="11.1859562"><ele>43.42857142857143</ele><time>2026-04-09T11:03:25.366Z</time></trkpt><trkpt lat="43.7575279" lon="11.1858776"><ele>43.57142857142857</ele><time>2026-04-09T11:03:29.4Z</time></trkpt><trkpt lat="43.7575636" lon="11.1857971"><ele>43.714285714285715</ele><time>2026-04-09T11:03:36.369Z</time></trkpt><trkpt lat="43.757597" lon="11.1857102"><ele>43.85714285714286</ele><time>2026-04-09T11:03:42.445Z</time></trkpt><trkpt lat="43.7576392" lon="11.185638"><ele>44.0</ele><time>2026-04-09T11:03:48.425Z</time></trkpt><trkpt lat="43.7576722" lon="11.1855612"><ele>44.285714285714285</ele><time>2026-04-09T11:03:53.426Z</time></trkpt><trkpt lat="43.7577129" lon="11.1854752"><ele>44.57142857142857</ele><time>2026-04-09T11:03:58.425Z</time></trkpt><trkpt lat="43.7577222" lon="11.1853803"><ele>44.85714285714286</ele><time>2026-04-09T11:04:02.447Z</time></trkpt><trkpt lat="43.7577427" lon="11.1852932"><ele>45.14285714285714</ele><time>2026-04-09T11:04:06.369Z</time></trkpt><trkpt lat="43.7578033" lon="11.1852357"><ele>45.42857142857142</ele><time>2026-04-09T11:04:10.45Z</time></trkpt><trkpt lat="43.7578701" lon="11.185197"><ele>45.714285714285715</ele><time>2026-04-09T11:04:17.408Z</time></trkpt><trkpt lat="43.7578937" lon="11.1851033"><ele>46.0</ele><time>2026-04-09T11:04:23.429Z</time></trkpt><trkpt lat="43.7579186" lon="11.1850096"><ele>46.0</ele><time>2026-04-09T11:04:28.429Z</time></trkpt><trkpt lat="43.7579566" lon="11.184932"><ele>46.0</ele><time>2026-04-09T11:04:33.43Z</time></trkpt><trkpt lat="43.7579886" lon="11.1848542"><ele>46.0</ele><time>2026-04-09T11:04:38.431Z</time></trkpt><trkpt lat="43.7580211" lon="11.1847661"><ele>46.0</ele><time>2026-04-09T11:04:43.432Z</time></trkpt><trkpt lat="43.7580608" lon="11.1846712"><ele>46.0</ele><time>2026-04-09T11:04:47.368Z</time></trkpt><trkpt lat="43.758101" lon="11.1845914"><ele>46.0</ele><time>2026-04-09T11:04:55.389Z</time></trkpt><trkpt lat="43.7581232" lon="11.1845035"><ele>46.0</ele><time>2026-04-09T11:05:00.39Z</time></trkpt><trkpt lat="43.7580923" lon="11.1845809"><ele>46.0</ele><time>2026-04-09T11:05:19.414Z</time></trkpt><trkpt lat="43.758023" lon="11.184603"><ele>46.0</ele><time>2026-04-09T11:05:27.459Z</time></trkpt><trkpt lat="43.7579596" lon="11.1846236"><ele>46.0</ele><time>2026-04-09T11:05:33.438Z</time></trkpt><trkpt lat="43.7578852" lon="11.1845301"><ele>46.0</ele><time>2026-04-09T11:05:35.446Z</time></trkpt><trkpt lat="43.7577741" lon="11.1843167"><ele>46.0</ele><time>2026-04-09T11:05:36.373Z</time></trkpt><trkpt lat="43.7577358" lon="11.1842293"><ele>46.285714285714285</ele><time>2026-04-09T11:05:39.417Z</time></trkpt><trkpt lat="43.757673" lon="11.1841949"><ele>46.57142857142857</ele><time>2026-04-09T11:05:43.44Z</time></trkpt><trkpt lat="43.7576171" lon="11.1841453"><ele>46.857142857142854</ele><time>2026-04-09T11:05:48.439Z</time></trkpt><trkpt lat="43.7576155" lon="11.1840403"><ele>47.14285714285714</ele><time>2026-04-09T11:05:56.426Z</time></trkpt><trkpt lat="43.7576512" lon="11.183965"><ele>47.42857142857143</ele><time>2026-04-09T11:06:00.389Z</time></trkpt><trkpt lat="43.7576958" lon="11.1838694"><ele>47.71428571428571</ele><time>2026-04-09T11:06:04.388Z</time></trkpt><trkpt lat="43.757736" lon="11.1837893"><ele>48.0</ele><time>2026-04-09T11:06:08.442Z</time></trkpt><trkpt lat="43.7577832" lon="11.183722"><ele>47.166666666666664</ele><time>2026-04-09T11:06:13.442Z</time></trkpt><trkpt lat="43.7578423" lon="11.1836643"><ele>46.333333333333336</ele><time>2026-04-09T11:06:18.442Z</time></trkpt><trkpt lat="43.7578813" lon="11.1835711"><ele>45.5</ele><time>2026-04-09T11:06:23.45Z</time></trkpt><trkpt lat="43.7579375" lon="11.1835245"><ele>44.66666666666667</ele><time>2026-04-09T11:06:27.446Z</time></trkpt><trkpt lat="43.7580022" lon="11.1835503"><ele>43.833333333333336</ele><time>2026-04-09T11:06:39.421Z</time></trkpt><trkpt lat="43.7580985" lon="11.1836296"><ele>43.0</ele><time>2026-04-09T11:06:58.442Z</time></trkpt><trkpt lat="43.7581623" lon="11.1836414"><ele>43.00000000000001</ele><time>2026-04-09T11:07:04.42Z</time></trkpt><trkpt lat="43.75823" lon="11.183582"><ele>43.0</ele><time>2026-04-09T11:07:12.463Z</time></trkpt><trkpt lat="43.7582786" lon="11.1835265"><ele>43.0</ele><time>2026-04-09T11:07:15.366Z</time></trkpt><trkpt lat="43.7583275" lon="11.1834497"><ele>43.0</ele><time>2026-04-09T11:07:20.397Z</time></trkpt><trkpt lat="43.7583838" lon="11.1833878"><ele>43.0</ele><time>2026-04-09T11:07:26.484Z</time></trkpt><trkpt lat="43.7583895" lon="11.1832861"><ele>43.00000000000001</ele><time>2026-04-09T11:07:32.457Z</time></trkpt><trkpt lat="43.7584362" lon="11.1832167"><ele>43.0</ele><time>2026-04-09T11:07:36.466Z</time></trkpt><trkpt lat="43.7584926" lon="11.1832752"><ele>43.00000000000001</ele><time>2026-04-09T11:07:46.478Z</time></trkpt><trkpt lat="43.7585647" lon="11.1832598"><ele>43.0</ele><time>2026-04-09T11:07:58.434Z</time></trkpt><trkpt lat="43.7586038" lon="11.1831568"><ele>43.0</ele><time>2026-04-09T11:08:04.412Z</time></trkpt><trkpt lat="43.7586367" lon="11.1830753"><ele>43.0</ele><time>2026-04-09T11:08:08.434Z</time></trkpt><trkpt lat="43.7586814" lon="11.1830085"><ele>43.0</ele><time>2026-04-09T11:08:12.408Z</time></trkpt><trkpt lat="43.7587442" lon="11.1829884"><ele>43.00000000000001</ele><time>2026-04-09T11:08:17.455Z</time></trkpt><trkpt lat="43.7587265" lon="11.1830746"><ele>43.0</ele><time>2026-04-09T11:08:52.326Z</time></trkpt><trkpt lat="43.7587565" lon="11.1831615"><ele>43.00000000000001</ele><time>2026-04-09T11:08:57.459Z</time></trkpt><trkpt lat="43.7588072" lon="11.1832178"><ele>43.0</ele><time>2026-04-09T11:09:06.372Z</time></trkpt><trkpt lat="43.7588691" lon="11.183243"><ele>43.0</ele><time>2026-04-09T11:09:10.394Z</time></trkpt><trkpt lat="43.7589155" lon="11.1833113"><ele>43.0</ele><time>2026-04-09T11:09:14.447Z</time></trkpt><trkpt lat="43.7589804" lon="11.1833603"><ele>43.0</ele><time>2026-04-09T11:09:18.438Z</time></trkpt><trkpt lat="43.7590372" lon="11.1834171"><ele>43.00000000000001</ele><time>2026-04-09T11:09:22.367Z</time></trkpt><trkpt lat="43.7590967" lon="11.1834703"><ele>43.0</ele><time>2026-04-09T11:09:27.367Z</time></trkpt><trkpt lat="43.7591456" lon="11.1835302"><ele>43.00000000000001</ele><time>2026-04-09T11:09:31.347Z</time></trkpt><trkpt lat="43.7592045" lon="11.1835904"><ele>43.0</ele><time>2026-04-09T11:09:36.406Z</time></trkpt><trkpt lat="43.7592617" lon="11.1836473"><ele>43.0</ele><time>2026-04-09T11:09:41.374Z</time></trkpt><trkpt lat="43.7593113" lon="11.1837061"><ele>43.0</ele><time>2026-04-09T11:09:45.397Z</time></trkpt><trkpt lat="43.7593691" lon="11.1837637"><ele>43.0</ele><time>2026-04-09T11:09:49.419Z</time></trkpt><trkpt lat="43.7594202" lon="11.1838252"><ele>43.00000000000001</ele><time>2026-04-09T11:09:54.419Z</time></trkpt><trkpt lat="43.7594737" lon="11.1838928"><ele>43.0</ele><time>2026-04-09T11:09:59.42Z</time></trkpt><trkpt lat="43.7595228" lon="11.1839475"><ele>43.00000000000001</ele><time>2026-04-09T11:10:03.442Z</time></trkpt><trkpt lat="43.7595776" lon="11.184007"><ele>43.0</ele><time>2026-04-09T11:10:07.367Z</time></trkpt><trkpt lat="43.7596311" lon="11.1840677"><ele>43.0</ele><time>2026-04-09T11:10:12.368Z</time></trkpt><trkpt lat="43.7596905" lon="11.1841386"><ele>43.0</ele><time>2026-04-09T11:10:17.448Z</time></trkpt><trkpt lat="43.7597391" lon="11.1842043"><ele>43.0</ele><time>2026-04-09T11:10:21.386Z</time></trkpt><trkpt lat="43.7597913" lon="11.1842639"><ele>43.00000000000001</ele><time>2026-04-09T11:10:26.308Z</time></trkpt><trkpt lat="43.7598465" lon="11.184322"><ele>43.0</ele><time>2026-04-09T11:10:32.37Z</time></trkpt><trkpt lat="43.7598942" lon="11.1843855"><ele>42.85714285714286</ele><time>2026-04-09T11:10:39.108Z</time></trkpt><trkpt lat="43.7599423" lon="11.1844506"><ele>42.714285714285715</ele><time>2026-04-09T11:10:44.423Z</time></trkpt><trkpt lat="43.7599956" lon="11.1845011"><ele>42.57142857142857</ele><time>2026-04-09T11:10:49.424Z</time></trkpt><trkpt lat="43.7600623" lon="11.1845133"><ele>42.42857142857143</ele><time>2026-04-09T11:10:56.381Z</time></trkpt><trkpt lat="43.7601283" lon="11.184466"><ele>42.285714285714285</ele><time>2026-04-09T11:11:03.447Z</time></trkpt><trkpt lat="43.7601673" lon="11.1843774"><ele>42.142857142857146</ele><time>2026-04-09T11:11:07.406Z</time></trkpt><trkpt lat="43.7602358" lon="11.1843979"><ele>42.0</ele><time>2026-04-09T11:11:14.468Z</time></trkpt><trkpt lat="43.7603033" lon="11.1844368"><ele>42.0</ele><time>2026-04-09T11:11:20.367Z</time></trkpt><trkpt lat="43.7603511" lon="11.1845052"><ele>42.0</ele><time>2026-04-09T11:11:25.406Z</time></trkpt><trkpt lat="43.7604018" lon="11.1845703"><ele>42.0</ele><time>2026-04-09T11:11:30.406Z</time></trkpt><trkpt lat="43.7604554" lon="11.1846363"><ele>42.0</ele><time>2026-04-09T11:11:35.406Z</time></trkpt><trkpt lat="43.7605044" lon="11.1846954"><ele>42.0</ele><time>2026-04-09T11:11:40.429Z</time></trkpt><trkpt lat="43.7605566" lon="11.184756"><ele>42.0</ele><time>2026-04-09T11:11:45.431Z</time></trkpt><trkpt lat="43.7606127" lon="11.184821"><ele>42.0</ele><time>2026-04-09T11:11:50.409Z</time></trkpt><trkpt lat="43.7606658" lon="11.1848817"><ele>41.857142857142854</ele><time>2026-04-09T11:11:55.408Z</time></trkpt><trkpt lat="43.7607185" lon="11.1849439"><ele>41.714285714285715</ele><time>2026-04-09T11:12:00.409Z</time></trkpt><trkpt lat="43.7607826" lon="11.1850149"><ele>41.57142857142857</ele><time>2026-04-09T11:12:05.446Z</time></trkpt><trkpt lat="43.76084" lon="11.1850819"><ele>41.42857142857143</ele><time>2026-04-09T11:12:10.41Z</time></trkpt><trkpt lat="43.7608927" lon="11.1851401"><ele>41.285714285714285</ele><time>2026-04-09T11:12:16.389Z</time></trkpt><trkpt lat="43.7609489" lon="11.1851818"><ele>41.14285714285714</ele><time>2026-04-09T11:12:23.366Z</time></trkpt><trkpt lat="43.7610177" lon="11.1852088"><ele>41.0</ele><time>2026-04-09T11:12:29.434Z</time></trkpt><trkpt lat="43.7610872" lon="11.1851983"><ele>40.99999999999999</ele><time>2026-04-09T11:12:33.367Z</time></trkpt><trkpt lat="43.7611507" lon="11.1851974"><ele>41.0</ele><time>2026-04-09T11:12:37.367Z</time></trkpt><trkpt lat="43.7612111" lon="11.1851681"><ele>41.0</ele><time>2026-04-09T11:12:42.37Z</time></trkpt><trkpt lat="43.7612751" lon="11.1850948"><ele>41.0</ele><time>2026-04-09T11:12:47.371Z</time></trkpt><trkpt lat="43.7613197" lon="11.1850326"><ele>41.0</ele><time>2026-04-09T11:12:51.392Z</time></trkpt><trkpt lat="43.7613692" lon="11.1849724"><ele>40.99999999999999</ele><time>2026-04-09T11:12:56.43Z</time></trkpt><trkpt lat="43.7614227" lon="11.1849104"><ele>41.0</ele><time>2026-04-09T11:13:01.388Z</time></trkpt><trkpt lat="43.7614786" lon="11.1848426"><ele>41.14285714285714</ele><time>2026-04-09T11:13:07.372Z</time></trkpt><trkpt lat="43.7615309" lon="11.184777"><ele>41.285714285714285</ele><time>2026-04-09T11:13:13.459Z</time></trkpt><trkpt lat="43.7615825" lon="11.1847073"><ele>41.42857142857143</ele><time>2026-04-09T11:13:20.369Z</time></trkpt><trkpt lat="43.7616364" lon="11.1846333"><ele>41.57142857142857</ele><time>2026-04-09T11:13:25.346Z</time></trkpt><trkpt lat="43.761684" lon="11.184557"><ele>41.714285714285715</ele><time>2026-04-09T11:13:30.417Z</time></trkpt><trkpt lat="43.7617324" lon="11.1844871"><ele>41.857142857142854</ele><time>2026-04-09T11:13:35.419Z</time></trkpt><trkpt lat="43.7617811" lon="11.1844229"><ele>42.0</ele><time>2026-04-09T11:13:40.418Z</time></trkpt><trkpt lat="43.761824" lon="11.1843483"><ele>41.833333333333336</ele><time>2026-04-09T11:13:46.397Z</time></trkpt><trkpt lat="43.761872" lon="11.1842731"><ele>41.666666666666664</ele><time>2026-04-09T11:13:51.399Z</time></trkpt><trkpt lat="43.7619215" lon="11.1841865"><ele>41.5</ele><time>2026-04-09T11:13:56.398Z</time></trkpt><trkpt lat="43.7619689" lon="11.1841071"><ele>41.33333333333333</ele><time>2026-04-09T11:14:01.399Z</time></trkpt><trkpt lat="43.7620183" lon="11.1840178"><ele>41.166666666666664</ele><time>2026-04-09T11:14:06.269Z</time></trkpt><trkpt lat="43.7620585" lon="11.1839376"><ele>41.0</ele><time>2026-04-09T11:14:11.4Z</time></trkpt><trkpt lat="43.762099" lon="11.1838552"><ele>40.99999999999999</ele><time>2026-04-09T11:14:17.379Z</time></trkpt><trkpt lat="43.762142" lon="11.1837696"><ele>41.0</ele><time>2026-04-09T11:14:22.379Z</time></trkpt><trkpt lat="43.7621793" lon="11.183686"><ele>41.0</ele><time>2026-04-09T11:14:27.38Z</time></trkpt><trkpt lat="43.7622173" lon="11.1836115"><ele>41.0</ele><time>2026-04-09T11:14:32.382Z</time></trkpt><trkpt lat="43.7622601" lon="11.1835268"><ele>41.0</ele><time>2026-04-09T11:14:38.807Z</time></trkpt><trkpt lat="43.7622862" lon="11.1834461"><ele>40.99999999999999</ele><time>2026-04-09T11:14:44.448Z</time></trkpt><trkpt lat="43.7622634" lon="11.1833614"><ele>41.0</ele><time>2026-04-09T11:14:49.449Z</time></trkpt><trkpt lat="43.7621967" lon="11.1832995"><ele>40.99999999999999</ele><time>2026-04-09T11:14:53.366Z</time></trkpt><trkpt lat="43.7621411" lon="11.1832501"><ele>41.0</ele><time>2026-04-09T11:14:57.409Z</time></trkpt><trkpt lat="43.7620856" lon="11.1832059"><ele>41.0</ele><time>2026-04-09T11:15:02.385Z</time></trkpt><trkpt lat="43.7620307" lon="11.1831555"><ele>41.0</ele><time>2026-04-09T11:15:07.385Z</time></trkpt><trkpt lat="43.7619752" lon="11.1831087"><ele>41.0</ele><time>2026-04-09T11:15:12.386Z</time></trkpt><trkpt lat="43.7619254" lon="11.1830478"><ele>40.99999999999999</ele><time>2026-04-09T11:15:16.45Z</time></trkpt><trkpt lat="43.7618643" lon="11.1830056"><ele>41.0</ele><time>2026-04-09T11:15:20.749Z</time></trkpt><trkpt lat="43.7617937" lon="11.1829561"><ele>41.14285714285714</ele><time>2026-04-09T11:15:25.087Z</time></trkpt><trkpt lat="43.761737" lon="11.182905"><ele>41.285714285714285</ele><time>2026-04-09T11:15:31.41Z</time></trkpt><trkpt lat="43.7616721" lon="11.1828499"><ele>41.42857142857143</ele><time>2026-04-09T11:15:37.389Z</time></trkpt><trkpt lat="43.761609" lon="11.1827991"><ele>41.57142857142857</ele><time>2026-04-09T11:15:42.391Z</time></trkpt><trkpt lat="43.7615568" lon="11.1827489"><ele>41.714285714285715</ele><time>2026-04-09T11:15:47.391Z</time></trkpt><trkpt lat="43.7614906" lon="11.1826925"><ele>41.857142857142854</ele><time>2026-04-09T11:15:52.391Z</time></trkpt><trkpt lat="43.7614336" lon="11.1826481"><ele>42.0</ele><time>2026-04-09T11:15:56.414Z</time></trkpt><trkpt lat="43.7613792" lon="11.1826031"><ele>42.0</ele><time>2026-04-09T11:16:00.436Z</time></trkpt><trkpt lat="43.7613079" lon="11.182542"><ele>42.0</ele><time>2026-04-09T11:16:05.229Z</time></trkpt><trkpt lat="43.761253" lon="11.1824964"><ele>42.0</ele><time>2026-04-09T11:16:10.438Z</time></trkpt><trkpt lat="43.7611929" lon="11.1824486"><ele>42.0</ele><time>2026-04-09T11:16:15.439Z</time></trkpt><trkpt lat="43.7611277" lon="11.1823965"><ele>42.0</ele><time>2026-04-09T11:16:19.462Z</time></trkpt><trkpt lat="43.761067" lon="11.1823536"><ele>42.0</ele><time>2026-04-09T11:16:24.305Z</time></trkpt><trkpt lat="43.7610012" lon="11.1823066"><ele>42.0</ele><time>2026-04-09T11:16:29.366Z</time></trkpt><trkpt lat="43.7609425" lon="11.1822705"><ele>41.857142857142854</ele><time>2026-04-09T11:16:33.376Z</time></trkpt><trkpt lat="43.7608833" lon="11.18222"><ele>41.714285714285715</ele><time>2026-04-09T11:16:40.049Z</time></trkpt><trkpt lat="43.7608219" lon="11.1821934"><ele>41.57142857142857</ele><time>2026-04-09T11:16:48.377Z</time></trkpt><trkpt lat="43.7607632" lon="11.1821564"><ele>41.42857142857143</ele><time>2026-04-09T11:16:55.443Z</time></trkpt><trkpt lat="43.7606979" lon="11.1821111"><ele>41.285714285714285</ele><time>2026-04-09T11:17:01.422Z</time></trkpt><trkpt lat="43.7606379" lon="11.1820621"><ele>41.14285714285714</ele><time>2026-04-09T11:17:06.423Z</time></trkpt><trkpt lat="43.7605695" lon="11.1820041"><ele>41.0</ele><time>2026-04-09T11:17:11.446Z</time></trkpt><trkpt lat="43.7605134" lon="11.1819619"><ele>40.99999999999999</ele><time>2026-04-09T11:17:16.424Z</time></trkpt><trkpt lat="43.7604551" lon="11.181918"><ele>41.0</ele><time>2026-04-09T11:17:22.403Z</time></trkpt><trkpt lat="43.7603921" lon="11.181879"><ele>41.0</ele><time>2026-04-09T11:17:31.429Z</time></trkpt><trkpt lat="43.7603286" lon="11.1818225"><ele>41.0</ele><time>2026-04-09T11:17:39.365Z</time></trkpt><trkpt lat="43.7602717" lon="11.1817784"><ele>41.0</ele><time>2026-04-09T11:17:54.365Z</time></trkpt><trkpt lat="43.7602136" lon="11.1817059"><ele>40.99999999999999</ele><time>2026-04-09T11:18:00.45Z</time></trkpt><trkpt lat="43.7601431" lon="11.1816723"><ele>41.0</ele><time>2026-04-09T11:18:06.428Z</time></trkpt><trkpt lat="43.7600842" lon="11.1816217"><ele>41.285714285714285</ele><time>2026-04-09T11:18:11.428Z</time></trkpt><trkpt lat="43.7600244" lon="11.181578"><ele>41.57142857142857</ele><time>2026-04-09T11:18:15.45Z</time></trkpt><trkpt lat="43.7599674" lon="11.1815401"><ele>41.85714285714286</ele><time>2026-04-09T11:18:19.472Z</time></trkpt><trkpt lat="43.7599063" lon="11.1814729"><ele>42.14285714285714</ele><time>2026-04-09T11:18:24.473Z</time></trkpt><trkpt lat="43.7598418" lon="11.1814354"><ele>42.42857142857143</ele><time>2026-04-09T11:18:29.469Z</time></trkpt><trkpt lat="43.7597761" lon="11.1813869"><ele>42.714285714285715</ele><time>2026-04-09T11:18:35.45Z</time></trkpt><trkpt lat="43.7597057" lon="11.1813282"><ele>43.0</ele><time>2026-04-09T11:18:41.428Z</time></trkpt><trkpt lat="43.7596671" lon="11.1812546"><ele>43.142857142857146</ele><time>2026-04-09T11:18:46.429Z</time></trkpt><trkpt lat="43.7596623" lon="11.1811613"><ele>43.285714285714285</ele><time>2026-04-09T11:18:54.57Z</time></trkpt><trkpt lat="43.7596545" lon="11.1810479"><ele>43.42857142857143</ele><time>2026-04-09T11:18:59.17Z</time></trkpt><trkpt lat="43.7596104" lon="11.1809634"><ele>43.57142857142857</ele><time>2026-04-09T11:19:05.452Z</time></trkpt><trkpt lat="43.7595707" lon="11.1808833"><ele>43.714285714285715</ele><time>2026-04-09T11:19:12.409Z</time></trkpt><trkpt lat="43.7596073" lon="11.180809"><ele>43.85714285714286</ele><time>2026-04-09T11:19:17.429Z</time></trkpt><trkpt lat="43.759647" lon="11.1807237"><ele>44.0</ele><time>2026-04-09T11:19:23.389Z</time></trkpt><trkpt lat="43.7596871" lon="11.1806451"><ele>44.0</ele><time>2026-04-09T11:19:29.477Z</time></trkpt><trkpt lat="43.7597148" lon="11.1805621"><ele>44.0</ele><time>2026-04-09T11:19:33.39Z</time></trkpt><trkpt lat="43.7597521" lon="11.1804685"><ele>44.0</ele><time>2026-04-09T11:19:39.47Z</time></trkpt><trkpt lat="43.7597815" lon="11.1803912"><ele>44.0</ele><time>2026-04-09T11:19:42.765Z</time></trkpt><trkpt lat="43.7598248" lon="11.1803042"><ele>44.0</ele><time>2026-04-09T11:19:47.269Z</time></trkpt><trkpt lat="43.7598701" lon="11.1802433"><ele>44.0</ele><time>2026-04-09T11:19:53.397Z</time></trkpt><trkpt lat="43.7599083" lon="11.1801658"><ele>44.0</ele><time>2026-04-09T11:20:04.087Z</time></trkpt><trkpt lat="43.7599433" lon="11.180071"><ele>44.0</ele><time>2026-04-09T11:20:08.395Z</time></trkpt><trkpt lat="43.7599797" lon="11.1799907"><ele>44.0</ele><time>2026-04-09T11:20:12.416Z</time></trkpt><trkpt lat="43.7600168" lon="11.179917"><ele>44.0</ele><time>2026-04-09T11:20:16.438Z</time></trkpt><trkpt lat="43.7600559" lon="11.1798267"><ele>44.0</ele><time>2026-04-09T11:20:21.151Z</time></trkpt><trkpt lat="43.7600899" lon="11.1797518"><ele>44.0</ele><time>2026-04-09T11:20:27.417Z</time></trkpt><trkpt lat="43.7601235" lon="11.1796747"><ele>44.0</ele><time>2026-04-09T11:20:32.418Z</time></trkpt><trkpt lat="43.7601568" lon="11.1795835"><ele>44.0</ele><time>2026-04-09T11:20:37.209Z</time></trkpt><trkpt lat="43.7601957" lon="11.1794902"><ele>43.85714285714286</ele><time>2026-04-09T11:20:42.419Z</time></trkpt><trkpt lat="43.7602333" lon="11.1793998"><ele>43.714285714285715</ele><time>2026-04-09T11:20:47.419Z</time></trkpt><trkpt lat="43.7602719" lon="11.1793121"><ele>43.57142857142857</ele><time>2026-04-09T11:20:52.421Z</time></trkpt><trkpt lat="43.7603069" lon="11.1792323"><ele>43.42857142857143</ele><time>2026-04-09T11:20:57.42Z</time></trkpt><trkpt lat="43.7603382" lon="11.1791535"><ele>43.285714285714285</ele><time>2026-04-09T11:21:02.421Z</time></trkpt><trkpt lat="43.7603714" lon="11.1790716"><ele>43.142857142857146</ele><time>2026-04-09T11:21:08.4Z</time></trkpt><trkpt lat="43.7604217" lon="11.1790146"><ele>43.0</ele><time>2026-04-09T11:21:13.41Z</time></trkpt><trkpt lat="43.7604603" lon="11.1789368"><ele>42.85714285714286</ele><time>2026-04-09T11:21:18.402Z</time></trkpt><trkpt lat="43.7604846" lon="11.1788497"><ele>42.714285714285715</ele><time>2026-04-09T11:21:23.402Z</time></trkpt><trkpt lat="43.7605163" lon="11.1787667"><ele>42.57142857142857</ele><time>2026-04-09T11:21:29.381Z</time></trkpt><trkpt lat="43.7605496" lon="11.1786761"><ele>42.42857142857143</ele><time>2026-04-09T11:21:35.364Z</time></trkpt><trkpt lat="43.760584" lon="11.178597"><ele>42.285714285714285</ele><time>2026-04-09T11:21:39.382Z</time></trkpt><trkpt lat="43.7606119" lon="11.1785046"><ele>42.142857142857146</ele><time>2026-04-09T11:21:44.382Z</time></trkpt><trkpt lat="43.7606512" lon="11.1784171"><ele>42.0</ele><time>2026-04-09T11:21:49.449Z</time></trkpt><trkpt lat="43.760699" lon="11.178356"><ele>42.0</ele><time>2026-04-09T11:21:54.383Z</time></trkpt><trkpt lat="43.7607331" lon="11.178272"><ele>42.0</ele><time>2026-04-09T11:22:01.449Z</time></trkpt><trkpt lat="43.7607656" lon="11.1781889"><ele>42.0</ele><time>2026-04-09T11:22:06.449Z</time></trkpt><trkpt lat="43.7607916" lon="11.1781078"><ele>42.0</ele><time>2026-04-09T11:22:10.364Z</time></trkpt><trkpt lat="43.7608235" lon="11.1780225"><ele>42.0</ele><time>2026-04-09T11:22:15.365Z</time></trkpt><trkpt lat="43.7608615" lon="11.1779367"><ele>42.0</ele><time>2026-04-09T11:22:20.425Z</time></trkpt><trkpt lat="43.7609146" lon="11.1778654"><ele>42.0</ele><time>2026-04-09T11:22:25.364Z</time></trkpt><trkpt lat="43.7609435" lon="11.1777773"><ele>42.0</ele><time>2026-04-09T11:22:32.468Z</time></trkpt><trkpt lat="43.7609791" lon="11.1776922"><ele>42.0</ele><time>2026-04-09T11:22:37.431Z</time></trkpt><trkpt lat="43.7610118" lon="11.1776138"><ele>42.0</ele><time>2026-04-09T11:22:42.432Z</time></trkpt><trkpt lat="43.761039" lon="11.1775173"><ele>42.0</ele><time>2026-04-09T11:22:48.028Z</time></trkpt><trkpt lat="43.7609957" lon="11.1774369"><ele>42.0</ele><time>2026-04-09T11:22:56.348Z</time></trkpt><trkpt lat="43.7609207" lon="11.1773926"><ele>42.0</ele><time>2026-04-09T11:23:00.368Z</time></trkpt><trkpt lat="43.7608487" lon="11.1773826"><ele>42.0</ele><time>2026-04-09T11:23:02.433Z</time></trkpt><trkpt lat="43.7607851" lon="11.1773231"><ele>42.142857142857146</ele><time>2026-04-09T11:23:07.434Z</time></trkpt><trkpt lat="43.7607281" lon="11.1772737"><ele>42.285714285714285</ele><time>2026-04-09T11:23:13.413Z</time></trkpt><trkpt lat="43.7606662" lon="11.1772298"><ele>42.42857142857143</ele><time>2026-04-09T11:23:20.37Z</time></trkpt><trkpt lat="43.7606074" lon="11.1771755"><ele>42.57142857142857</ele><time>2026-04-09T11:23:27.436Z</time></trkpt><trkpt lat="43.7605436" lon="11.1771238"><ele>42.714285714285715</ele><time>2026-04-09T11:23:32.436Z</time></trkpt><trkpt lat="43.7604854" lon="11.1770761"><ele>42.85714285714286</ele><time>2026-04-09T11:23:37.437Z</time></trkpt><trkpt lat="43.7604166" lon="11.1770229"><ele>43.0</ele><time>2026-04-09T11:23:42.438Z</time></trkpt><trkpt lat="43.7603605" lon="11.1769792"><ele>43.00000000000001</ele><time>2026-04-09T11:23:45.395Z</time></trkpt><trkpt lat="43.7603027" lon="11.1769353"><ele>43.0</ele><time>2026-04-09T11:23:49.395Z</time></trkpt><trkpt lat="43.7602402" lon="11.176887"><ele>43.0</ele><time>2026-04-09T11:23:55.482Z</time></trkpt><trkpt lat="43.7601801" lon="11.1768431"><ele>43.0</ele><time>2026-04-09T11:24:01.461Z</time></trkpt><trkpt lat="43.7601098" lon="11.1767965"><ele>43.0</ele><time>2026-04-09T11:24:08.413Z</time></trkpt><trkpt lat="43.7600597" lon="11.176739"><ele>43.00000000000001</ele><time>2026-04-09T11:24:11.364Z</time></trkpt><trkpt lat="43.7599948" lon="11.1767831"><ele>43.0</ele><time>2026-04-09T11:24:18.414Z</time></trkpt><trkpt lat="43.7599506" lon="11.1768565"><ele>42.85714285714286</ele><time>2026-04-09T11:24:23.415Z</time></trkpt><trkpt lat="43.7598979" lon="11.1769267"><ele>42.714285714285715</ele><time>2026-04-09T11:24:27.438Z</time></trkpt><trkpt lat="43.759826" lon="11.1769103"><ele>42.57142857142857</ele><time>2026-04-09T11:24:33.416Z</time></trkpt><trkpt lat="43.7597818" lon="11.176973"><ele>42.42857142857143</ele><time>2026-04-09T11:24:41.461Z</time></trkpt><trkpt lat="43.7597538" lon="11.177067"><ele>42.285714285714285</ele><time>2026-04-09T11:24:48.417Z</time></trkpt><trkpt lat="43.7597233" lon="11.1771465"><ele>42.142857142857146</ele><time>2026-04-09T11:24:53.417Z</time></trkpt><trkpt lat="43.7596893" lon="11.1772317"><ele>42.0</ele><time>2026-04-09T11:24:57.469Z</time></trkpt><trkpt lat="43.7596554" lon="11.1773086"><ele>42.142857142857146</ele><time>2026-04-09T11:25:01.462Z</time></trkpt><trkpt lat="43.7596216" lon="11.1773939"><ele>42.285714285714285</ele><time>2026-04-09T11:25:06.43Z</time></trkpt><trkpt lat="43.7595807" lon="11.1774765"><ele>42.42857142857143</ele><time>2026-04-09T11:25:12.409Z</time></trkpt><trkpt lat="43.7595431" lon="11.1775517"><ele>42.57142857142857</ele><time>2026-04-09T11:25:18.42Z</time></trkpt><trkpt lat="43.7595046" lon="11.1776591"><ele>42.714285714285715</ele><time>2026-04-09T11:25:37.443Z</time></trkpt><trkpt lat="43.7594671" lon="11.1777455"><ele>42.85714285714286</ele><time>2026-04-09T11:25:43.422Z</time></trkpt><trkpt lat="43.7594385" lon="11.1778237"><ele>43.0</ele><time>2026-04-09T11:25:50.345Z</time></trkpt><trkpt lat="43.7594009" lon="11.1778987"><ele>42.85714285714286</ele><time>2026-04-09T11:25:56.364Z</time></trkpt><trkpt lat="43.7593647" lon="11.1779766"><ele>42.714285714285715</ele><time>2026-04-09T11:26:01.364Z</time></trkpt><trkpt lat="43.7593327" lon="11.1780565"><ele>42.57142857142857</ele><time>2026-04-09T11:26:06.364Z</time></trkpt><trkpt lat="43.7592966" lon="11.178135"><ele>42.42857142857143</ele><time>2026-04-09T11:26:11.409Z</time></trkpt><trkpt lat="43.759267" lon="11.1782123"><ele>42.285714285714285</ele><time>2026-04-09T11:26:15.43Z</time></trkpt><trkpt lat="43.7592348" lon="11.1782939"><ele>42.142857142857146</ele><time>2026-04-09T11:26:19.4Z</time></trkpt><trkpt lat="43.7591937" lon="11.1783747"><ele>42.0</ele><time>2026-04-09T11:26:24.401Z</time></trkpt><trkpt lat="43.759148" lon="11.1784446"><ele>42.285714285714285</ele><time>2026-04-09T11:26:29.408Z</time></trkpt><trkpt lat="43.7591175" lon="11.1785261"><ele>42.57142857142857</ele><time>2026-04-09T11:26:33.423Z</time></trkpt><trkpt lat="43.7590836" lon="11.1786127"><ele>42.85714285714286</ele><time>2026-04-09T11:26:39.429Z</time></trkpt><trkpt lat="43.759047" lon="11.1787058"><ele>43.14285714285714</ele><time>2026-04-09T11:26:45.381Z</time></trkpt><trkpt lat="43.7590079" lon="11.1787871"><ele>43.42857142857143</ele><time>2026-04-09T11:26:51.363Z</time></trkpt><trkpt lat="43.7589757" lon="11.178868"><ele>43.714285714285715</ele><time>2026-04-09T11:26:56.468Z</time></trkpt><trkpt lat="43.7589349" lon="11.1789513"><ele>44.0</ele><time>2026-04-09T11:27:01.469Z</time></trkpt><trkpt lat="43.7588886" lon="11.1790203"><ele>44.57142857142857</ele><time>2026-04-09T11:27:07.426Z</time></trkpt><trkpt lat="43.7588582" lon="11.1791036"><ele>45.14285714285714</ele><time>2026-04-09T11:27:13.449Z</time></trkpt><trkpt lat="43.7588245" lon="11.179178"><ele>45.71428571428571</ele><time>2026-04-09T11:27:18.427Z</time></trkpt><trkpt lat="43.7587869" lon="11.1792606"><ele>46.285714285714285</ele><time>2026-04-09T11:27:23.429Z</time></trkpt><trkpt lat="43.7587511" lon="11.1793372"><ele>46.857142857142854</ele><time>2026-04-09T11:27:28.428Z</time></trkpt><trkpt lat="43.7587158" lon="11.1794117"><ele>47.42857142857142</ele><time>2026-04-09T11:27:34.407Z</time></trkpt><trkpt lat="43.7586777" lon="11.1794886"><ele>48.0</ele><time>2026-04-09T11:27:40.386Z</time></trkpt><trkpt lat="43.7586429" lon="11.1795614"><ele>47.99999999999999</ele><time>2026-04-09T11:27:46.364Z</time></trkpt><trkpt lat="43.758607" lon="11.1796531"><ele>48.0</ele><time>2026-04-09T11:27:52.452Z</time></trkpt><trkpt lat="43.7585643" lon="11.1797455"><ele>48.0</ele><time>2026-04-09T11:27:57.452Z</time></trkpt><trkpt lat="43.7585232" lon="11.1798359"><ele>48.0</ele><time>2026-04-09T11:28:02.267Z</time></trkpt><trkpt lat="43.7584818" lon="11.1799082"><ele>48.0</ele><time>2026-04-09T11:28:08.432Z</time></trkpt><trkpt lat="43.7584436" lon="11.179993"><ele>47.99999999999999</ele><time>2026-04-09T11:28:14.41Z</time></trkpt><trkpt lat="43.7583802" lon="11.1799643"><ele>48.0</ele><time>2026-04-09T11:28:20.389Z</time></trkpt><trkpt lat="43.7583308" lon="11.1798958"><ele>47.42857142857142</ele><time>2026-04-09T11:28:24.411Z</time></trkpt><trkpt lat="43.7582769" lon="11.1798432"><ele>46.857142857142854</ele><time>2026-04-09T11:28:28.434Z</time></trkpt><trkpt lat="43.7582014" lon="11.1798607"><ele>46.285714285714285</ele><time>2026-04-09T11:28:35.411Z</time></trkpt><trkpt lat="43.7581344" lon="11.1798757"><ele>45.71428571428571</ele><time>2026-04-09T11:28:41.328Z</time></trkpt><trkpt lat="43.7580911" lon="11.1799407"><ele>45.14285714285714</ele><time>2026-04-09T11:28:45.392Z</time></trkpt><trkpt lat="43.7580442" lon="11.1800014"><ele>44.57142857142857</ele><time>2026-04-09T11:28:49.414Z</time></trkpt><trkpt lat="43.7579853" lon="11.1800453"><ele>44.0</ele><time>2026-04-09T11:28:53.907Z</time></trkpt><trkpt lat="43.757931" lon="11.180114"><ele>44.0</ele><time>2026-04-09T11:29:00.393Z</time></trkpt><trkpt lat="43.7578897" lon="11.1801991"><ele>44.0</ele><time>2026-04-09T11:29:05.347Z</time></trkpt><trkpt lat="43.7578432" lon="11.1802839"><ele>44.0</ele><time>2026-04-09T11:29:10.394Z</time></trkpt><trkpt lat="43.7578015" lon="11.1803542"><ele>44.0</ele><time>2026-04-09T11:29:15.394Z</time></trkpt><trkpt lat="43.7577587" lon="11.1804498"><ele>44.0</ele><time>2026-04-09T11:29:22.46Z</time></trkpt><trkpt lat="43.7577176" lon="11.1805332"><ele>44.0</ele><time>2026-04-09T11:29:28.437Z</time></trkpt><trkpt lat="43.7576641" lon="11.1805846"><ele>44.0</ele><time>2026-04-09T11:29:35.395Z</time></trkpt><trkpt lat="43.7575884" lon="11.1805811"><ele>43.0</ele><time>2026-04-09T11:30:09.066Z</time></trkpt><trkpt lat="43.7575505" lon="11.1806523"><ele>43.0</ele><time>2026-04-09T11:30:17.09Z</time></trkpt><trkpt lat="43.7574888" lon="11.1807062"><ele>45.0</ele><time>2026-04-09T11:30:27.349Z</time></trkpt></trkseg></trk></gpx>